Taiheimaru — JM6135 — position and weather

sailwx.info

Track history (hours):
 
Tides and Currents Weather Stations Pressure Air Temp Water Temp Dewpoint Dewpoint Depression Visibility Wind Speed Wind Dir Waves Ship Positions

Taiheimaru

Last reported at 2015-Apr-27 08:08 UTC. Time now 2015-Apr-28 03:44 UTC.
Position N 34°36' E 134°56'.

Length 78 m.

Type: Cargo ship. MMSI: 431400082.

Date/timePositionNaut miles runAvg speedWind from/ knotsBaromVisibWave heightAir tempDewpointWater temp
2015-Apr-27 08:08N 34°36' E 134°56'711.5
2015-Apr-27 07:33N 34°36' E 135°04'10 9.8
2015-Apr-27 06:33N 34°39' E 135°15'0 0.3
2015-Apr-27 05:31N 34°39' E 135°14'0 0.0
2015-Apr-27 04:27N 34°39' E 135°14'0 0.1
2015-Apr-27 03:32N 34°40' E 135°15'2 2.1
2015-Apr-27 02:28N 34°41' E 135°12'0 0.0
2015-Apr-27 01:33N 34°41' E 135°12'0 0.0
2015-Apr-27 00:30N 34°41' E 135°12'0 0.0
2015-Apr-26 23:32N 34°41' E 135°12'4 4.3
2015-Apr-26 22:33N 34°37' E 135°13'  
2015-Apr-24 07:31N 34°36' E 135°05'9 8.7
2015-Apr-24 06:32N 34°40' E 135°14'0 0.1
2015-Apr-24 05:25N 34°40' E 135°14'0 0.0
2015-Apr-24 04:24N 34°40' E 135°14'0 0.1
2015-Apr-24 03:29N 34°40' E 135°14'0 0.0
2015-Apr-24 02:28N 34°40' E 135°14'0 0.2
2015-Apr-24 01:32N 34°40' E 135°15'1 1.2
2015-Apr-24 00:32N 34°38' E 135°15'0 0.0
2015-Apr-23 23:32N 34°38' E 135°15'0 0.0
2015-Apr-23 22:32N 34°38' E 135°15'6 6.4
2015-Apr-23 21:33N 34°36' E 135°08'11 0.3
2015-Apr-22 06:15N 34°36' E 134°54'7 9.1
2015-Apr-22 05:27N 34°36' E 135°03'1212.0
2015-Apr-22 04:26N 34°38' E 135°18'6 6.1
2015-Apr-22 03:27N 34°38' E 135°25'0 0.0
2015-Apr-22 02:25N 34°38' E 135°25'6 6.5
2015-Apr-22 01:32N 34°39' E 135°18'3 3.0
2015-Apr-22 00:27N 34°40' E 135°14'0 0.0
2015-Apr-21 23:30N 34°40' E 135°14'0 0.0
2015-Apr-21 22:33N 34°40' E 135°14'0 0.0
2015-Apr-21 21:30N 34°40' E 135°14'0 0.0
2015-Apr-21 20:34N 34°40' E 135°14'3 3.5
2015-Apr-21 19:33N 34°37' E 135°12'9 0.3
2015-Apr-20 10:24N 34°37' E 135°01'1112.3
2015-Apr-20 09:32N 34°38' E 135°14'7 2.2
2015-Apr-20 06:33N 34°38' E 135°22'6 6.4
2015-Apr-20 05:33N 34°39' E 135°15'0 0.0
2015-Apr-20 04:27N 34°39' E 135°15'0 0.0
2015-Apr-20 03:30N 34°39' E 135°15'0 0.0
2015-Apr-20 02:31N 34°39' E 135°15'0 0.0
2015-Apr-20 01:31N 34°39' E 135°15'0 0.0
2015-Apr-20 00:31N 34°39' E 135°15'0 0.0
2015-Apr-19 23:31N 34°39' E 135°15'2 1.6
2015-Apr-19 22:28N 34°40' E 135°13'0 0.0
2015-Apr-19 21:28N 34°40' E 135°13'0 0.0
2015-Apr-19 20:24N 34°40' E 135°13'0 0.0
2015-Apr-19 19:30N 34°40' E 135°13'0 0.0
2015-Apr-19 18:30N 34°40' E 135°13'0 0.0
2015-Apr-19 17:24N 34°40' E 135°13'0 0.0
2015-Apr-19 16:30N 34°40' E 135°13'0 0.0
2015-Apr-19 15:30N 34°40' E 135°13'0 0.0
2015-Apr-19 14:32N 34°40' E 135°13'0 0.0
2015-Apr-19 13:32N 34°40' E 135°13'0 0.0
2015-Apr-19 12:32N 34°40' E 135°13'0 0.0
2015-Apr-19 11:33N 34°40' E 135°13'0 0.0
2015-Apr-19 10:33N 34°40' E 135°13'0 0.0
2015-Apr-19 09:32N 34°40' E 135°13'0 0.0
2015-Apr-19 08:33N 34°40' E 135°13'0 0.0
2015-Apr-19 07:29N 34°40' E 135°13'0 0.0
2015-Apr-19 06:33N 34°40' E 135°13'0 0.1
2015-Apr-19 05:34N 34°41' E 135°13'8 7.9
2015-Apr-19 04:33N 34°35' E 135°06'  
Track history (hours):
 
Tides and Currents Weather Stations Pressure Air Temp Water Temp Dewpoint Dewpoint Depression Visibility Wind Speed Wind Dir Waves Ship Positions

Taiheimaru

Last reported at 2015-Apr-27 08:08 UTC. Time now 2015-Apr-28 03:44 UTC.
Position N 34°36' E 134°56'.

Length 78 m.

Type: Cargo ship. MMSI: 431400082.

Date/timePositionNaut miles runAvg speedWind from/ knotsBaromVisibWave heightAir tempDewpointWater temp
2015-Apr-27 08:08N 34°36' E 134°56'711.5
2015-Apr-27 07:33N 34°36' E 135°04'10 9.8
2015-Apr-27 06:33N 34°39' E 135°15'0 0.3
2015-Apr-27 05:31N 34°39' E 135°14'0 0.0
2015-Apr-27 04:27N 34°39' E 135°14'0 0.1
2015-Apr-27 03:32N 34°40' E 135°15'2 2.1
2015-Apr-27 02:28N 34°41' E 135°12'0 0.0
2015-Apr-27 01:33N 34°41' E 135°12'0 0.0
2015-Apr-27 00:30N 34°41' E 135°12'0 0.0
2015-Apr-26 23:32N 34°41' E 135°12'4 4.3
2015-Apr-26 22:33N 34°37' E 135°13'  
2015-Apr-24 07:31N 34°36' E 135°05'9 8.7
2015-Apr-24 06:32N 34°40' E 135°14'0 0.1
2015-Apr-24 05:25N 34°40' E 135°14'0 0.0
2015-Apr-24 04:24N 34°40' E 135°14'0 0.1
2015-Apr-24 03:29N 34°40' E 135°14'0 0.0
2015-Apr-24 02:28N 34°40' E 135°14'0 0.2
2015-Apr-24 01:32N 34°40' E 135°15'1 1.2
2015-Apr-24 00:32N 34°38' E 135°15'0 0.0
2015-Apr-23 23:32N 34°38' E 135°15'0 0.0
2015-Apr-23 22:32N 34°38' E 135°15'6 6.4
2015-Apr-23 21:33N 34°36' E 135°08'11 0.3
2015-Apr-22 06:15N 34°36' E 134°54'7 9.1
2015-Apr-22 05:27N 34°36' E 135°03'1212.0
2015-Apr-22 04:26N 34°38' E 135°18'6 6.1
2015-Apr-22 03:27N 34°38' E 135°25'0 0.0
2015-Apr-22 02:25N 34°38' E 135°25'6 6.5
2015-Apr-22 01:32N 34°39' E 135°18'3 3.0
2015-Apr-22 00:27N 34°40' E 135°14'0 0.0
2015-Apr-21 23:30N 34°40' E 135°14'0 0.0
2015-Apr-21 22:33N 34°40' E 135°14'0 0.0
2015-Apr-21 21:30N 34°40' E 135°14'0 0.0
2015-Apr-21 20:34N 34°40' E 135°14'3 3.5
2015-Apr-21 19:33N 34°37' E 135°12'9 0.3
2015-Apr-20 10:24N 34°37' E 135°01'1112.3
2015-Apr-20 09:32N 34°38' E 135°14'7 2.2
2015-Apr-20 06:33N 34°38' E 135°22'6 6.4
2015-Apr-20 05:33N 34°39' E 135°15'0 0.0
2015-Apr-20 04:27N 34°39' E 135°15'0 0.0
2015-Apr-20 03:30N 34°39' E 135°15'0 0.0
2015-Apr-20 02:31N 34°39' E 135°15'0 0.0
2015-Apr-20 01:31N 34°39' E 135°15'0 0.0
2015-Apr-20 00:31N 34°39' E 135°15'0 0.0
2015-Apr-19 23:31N 34°39' E 135°15'2 1.6
2015-Apr-19 22:28N 34°40' E 135°13'0 0.0
2015-Apr-19 21:28N 34°40' E 135°13'0 0.0
2015-Apr-19 20:24N 34°40' E 135°13'0 0.0
2015-Apr-19 19:30N 34°40' E 135°13'0 0.0
2015-Apr-19 18:30N 34°40' E 135°13'0 0.0
2015-Apr-19 17:24N 34°40' E 135°13'0 0.0
2015-Apr-19 16:30N 34°40' E 135°13'0 0.0
2015-Apr-19 15:30N 34°40' E 135°13'0 0.0
2015-Apr-19 14:32N 34°40' E 135°13'0 0.0
2015-Apr-19 13:32N 34°40' E 135°13'0 0.0
2015-Apr-19 12:32N 34°40' E 135°13'0 0.0
2015-Apr-19 11:33N 34°40' E 135°13'0 0.0
2015-Apr-19 10:33N 34°40' E 135°13'0 0.0
2015-Apr-19 09:32N 34°40' E 135°13'0 0.0
2015-Apr-19 08:33N 34°40' E 135°13'0 0.0
2015-Apr-19 07:29N 34°40' E 135°13'0 0.0
2015-Apr-19 06:33N 34°40' E 135°13'0 0.1
2015-Apr-19 05:34N 34°41' E 135°13'8 7.9
2015-Apr-19 04:33N 34°35' E 135°06'  

Dump ship's entire track history